Time;durP1;ratioP1;P1;durP2;ratioP2;P2;SDS_P1;SDS_P2;PMS_P1;PMS_P2;Temp;Humidity;BMP_temperature;BMP_pressure;BME280_temperature;BME280_humidity;BME280_pressure;Samples;Min_cycle;Max_cycle;Signal;HPM_P1;HPM_P2
2022/01/16 00:00:32;;;;;;;1.10;1.10;;;-1.50;1.40;;;-0.50;100.00;96013.69;646854;216;32102;-76
2022/01/16 00:05:59;;;;;;;3.00;1.40;;;-1.40;1.40;;;-0.63;100.00;95996.02;641520;212;32167;-77
2022/01/16 00:08:41;;;;;;;3.10;1.20;;;-1.50;1.40;;;-0.64;100.00;95975.33;619354;226;31936;-77
2022/01/16 00:11:23;;;;;;;1.70;1.60;;;-1.60;1.40;;;-0.46;100.00;96006.34;647782;212;31616;-77
2022/01/16 00:14:04;;;;;;;2.28;1.10;;;-1.50;1.40;;;-0.77;100.00;96011.28;648104;212;31523;-77
2022/01/16 00:16:46;;;;;;;3.45;2.00;;;-1.60;1.40;;;-0.83;100.00;96000.17;647301;212;41896;-78
2022/01/16 00:19:27;;;;;;;1.60;1.30;;;-1.60;1.40;;;-0.75;100.00;96000.79;646370;216;31596;-77
2022/01/16 00:22:13;;;;;;;1.77;1.20;;;-1.60;1.40;;;-0.87;100.00;95971.90;646525;216;31586;-77
2022/01/16 00:24:54;;;;;;;1.50;1.40;;;-1.60;1.40;;;-0.59;100.00;95988.10;646579;212;32141;-74
2022/01/16 00:27:37;;;;;;;0.90;0.90;;;-1.60;1.40;;;-0.52;100.00;95962.55;647315;216;31565;-77
2022/01/16 00:30:28;;;;;;;1.40;1.27;;;-1.50;1.40;;;-0.23;100.00;95945.87;646909;216;31820;-74
2022/01/16 00:35:50;;;;;;;2.17;1.98;;;-1.30;1.40;;;-0.33;100.00;95982.42;647288;212;31539;-78
2022/01/16 00:38:40;;;;;;;2.40;2.10;;;-1.40;1.40;;;-0.35;100.00;95974.56;645648;213;31655;-76
2022/01/16 00:41:27;;;;;;;6.25;2.05;;;-1.50;1.40;;;-0.28;100.00;95982.13;646307;216;31622;-77
2022/01/16 00:44:08;;;;;;;2.60;2.40;;;-1.50;1.40;;;-0.40;100.00;95988.25;647103;216;31528;-77
2022/01/16 00:46:56;;;;;;;4.00;2.03;;;-1.50;1.40;;;-0.33;100.00;95994.28;643902;218;31880;-74
2022/01/16 00:49:44;;;;;;;5.00;1.50;;;-1.40;1.40;;;-0.32;100.00;95971.36;647596;216;42192;-78
2022/01/16 00:52:25;;;;;;;1.98;1.75;;;-1.40;1.40;;;-0.40;100.00;95971.47;647745;212;31515;-77
2022/01/16 00:55:08;;;;;;;1.00;0.90;;;-1.50;1.40;;;-0.28;100.00;95966.77;647628;212;42186;-77
2022/01/16 00:57:50;;;;;;;1.20;1.20;;;-1.40;1.40;;;-0.48;100.00;95981.00;645673;216;31553;-77
2022/01/16 01:00:32;;;;;;;1.95;1.62;;;-1.50;1.40;;;-0.33;100.00;95969.67;647979;212;31530;-77
2022/01/16 01:03:13;;;;;;;1.02;0.80;;;-1.50;1.40;;;-0.49;100.00;95982.07;647375;212;31594;-77
2022/01/16 01:05:55;;;;;;;1.20;1.20;;;-1.60;1.40;;;-0.32;100.00;95991.23;642801;216;31757;-78
2022/01/16 01:08:37;;;;;;;2.00;1.90;;;-1.50;1.40;;;-0.46;100.00;96016.57;646626;212;31590;-77
2022/01/16 01:11:26;;;;;;;3.62;2.00;;;-1.50;1.40;;;-0.62;100.00;96010.09;647611;216;31933;-75
2022/01/16 01:14:16;;;;;;;2.60;1.50;;;-1.50;1.40;;;-0.44;100.00;96010.98;631958;222;31787;-77
2022/01/16 01:16:54;;;;;;;3.20;2.90;;;-1.50;1.40;;;-0.53;100.00;95987.52;647416;212;31559;-77
2022/01/16 01:19:43;;;;;;;1.70;1.60;;;-1.60;1.40;;;-0.48;100.00;95921.44;646394;212;31621;-77
2022/01/16 01:22:26;;;;;;;5.00;2.70;;;-1.50;1.40;;;-0.48;100.00;95910.58;647056;216;31688;-77
2022/01/16 01:25:13;;;;;;;2.55;2.35;;;-1.50;1.40;;;-0.59;100.00;95914.94;647130;216;31625;-78
2022/01/16 01:27:57;;;;;;;2.87;1.90;;;-1.60;1.40;;;-0.66;100.00;95912.83;648067;212;42190;-77
2022/01/16 01:30:39;;;;;;;4.28;1.00;;;-1.60;1.40;;;-0.67;100.00;95909.66;646430;216;31462;-78
2022/01/16 01:35:51;;;;;;;1.42;1.40;;;-1.60;1.40;;;-0.40;100.00;95961.88;647660;212;31685;-77
2022/01/16 01:38:33;;;;;;;4.00;2.53;;;-1.50;1.40;;;-0.42;100.00;95981.63;646732;216;31565;-78
2022/01/16 01:41:15;;;;;;;1.65;1.45;;;-1.50;1.40;;;-0.41;100.00;95970.55;646637;216;31940;-77
2022/01/16 01:51:58;;;;;;;1.48;1.08;;;-1.60;1.40;;;-0.87;100.00;95974.48;646728;216;31613;-77
2022/01/16 01:54:41;;;;;;;2.12;2.03;;;-1.70;1.40;;;-0.84;100.00;95963.73;646084;212;31592;-77
2022/01/16 01:57:26;;;;;;;2.92;1.05;;;-1.70;1.40;;;-0.96;100.00;95978.73;646502;212;31592;-77
2022/01/16 02:00:09;;;;;;;2.20;1.20;;;-1.70;1.40;;;-0.93;100.00;95978.22;646953;212;31597;-77
2022/01/16 02:05:41;;;;;;;1.80;1.70;;;-1.70;1.40;;;-0.97;100.00;95995.09;646371;216;31864;-77
2022/01/16 02:08:28;;;;;;;2.83;1.17;;;-1.70;1.40;;;-1.00;100.00;95990.98;616301;226;31862;-77
2022/01/16 02:11:12;;;;;;;1.90;1.80;;;-1.70;1.40;;;-0.98;100.00;95993.70;646906;212;31576;-77
2022/01/16 02:14:11;;;;;;;2.08;1.87;;;-1.70;1.40;;;-0.96;100.00;96004.63;647278;216;31644;-77
2022/01/16 02:28:14;;;;;;;1.10;1.10;;;-1.70;1.40;;;-1.20;100.00;95979.86;647850;216;31545;-77
2022/01/16 02:35:53;;;;;;;1.90;1.80;;;-1.70;1.40;;;-1.11;100.00;95975.39;647430;216;31727;-77
2022/01/16 02:38:32;;;;;;;2.10;1.50;;;-1.70;1.40;;;-1.02;100.00;95975.08;649063;216;31515;-78
2022/01/16 02:41:17;;;;;;;1.77;1.37;;;-1.70;1.40;;;-1.05;100.00;95964.34;646810;212;31560;-77
2022/01/16 02:44:11;;;;;;;3.37;2.05;;;-1.70;1.40;;;-0.92;100.00;95952.58;647006;212;32193;-77
2022/01/16 02:46:44;;;;;;;1.50;1.40;;;-1.70;1.40;;;-1.01;100.00;95960.00;620151;226;32196;-77
2022/01/16 02:49:29;;;;;;;5.97;2.30;;;-1.70;1.40;;;-1.00;100.00;95958.28;646422;216;31612;-77
2022/01/16 02:52:10;;;;;;;3.72;1.40;;;-1.70;1.40;;;-0.97;100.00;95945.92;647155;212;31940;-77
2022/01/16 02:54:54;;;;;;;1.50;1.40;;;-1.60;1.40;;;-1.02;100.00;95944.53;646957;216;31585;-77
2022/01/16 02:57:39;;;;;;;3.53;1.80;;;-1.70;1.40;;;-1.01;100.00;95937.27;647282;212;31625;-77
2022/01/16 03:00:21;;;;;;;2.65;2.25;;;-1.60;1.40;;;-0.98;100.00;95933.75;619394;222;32053;-76
2022/01/16 03:03:03;;;;;;;4.60;2.20;;;-1.60;1.40;;;-0.97;100.00;95928.05;647088;216;31576;-74
2022/01/16 03:05:47;;;;;;;4.18;1.52;;;-1.60;1.40;;;-1.03;100.00;95936.78;643020;216;31915;-78
2022/01/16 03:08:28;;;;;;;5.03;1.67;;;-1.60;1.40;;;-1.04;100.00;95929.25;646960;216;31532;-77
2022/01/16 03:11:20;;;;;;;2.47;1.60;;;-1.60;1.40;;;-1.05;100.00;95916.63;633207;217;31663;-77
2022/01/16 03:13:57;;;;;;;2.40;2.20;;;-1.60;1.40;;;-1.05;100.00;95911.67;647275;216;31911;-77
2022/01/16 03:16:47;;;;;;;2.00;1.90;;;-1.70;1.40;;;-1.04;100.00;95899.31;646835;216;31564;-78
2022/01/16 03:22:14;;;;;;;3.37;1.80;;;-1.60;1.40;;;-0.99;100.00;95902.44;646579;216;31586;-74
2022/01/16 03:25:00;;;;;;;2.12;1.87;;;-1.60;1.40;;;-0.98;100.00;95899.17;642567;218;31504;-77
2022/01/16 03:27:41;;;;;;;4.10;2.10;;;-1.60;1.40;;;-0.94;100.00;95899.87;618693;226;31942;-78
2022/01/16 03:30:23;;;;;;;1.80;1.70;;;-1.60;1.40;;;-0.99;100.00;95904.08;648422;212;31738;-78
2022/01/16 03:35:54;;;;;;;2.92;1.90;;;-1.60;1.40;;;-0.96;100.00;95900.08;646530;216;42218;-75
2022/01/16 03:38:37;;;;;;;1.85;1.75;;;-1.50;1.40;;;-0.97;100.00;95898.77;646677;216;31557;-78
2022/01/16 03:41:19;;;;;;;2.17;1.75;;;-1.60;1.40;;;-1.02;100.00;95892.19;647517;216;31941;-77
2022/01/16 03:44:04;;;;;;;4.60;2.70;;;-1.60;1.40;;;-1.02;100.00;95884.53;646973;216;32245;-77
2022/01/16 03:46:46;;;;;;;3.50;1.65;;;-1.60;1.40;;;-0.99;100.00;95882.84;647080;216;31602;-77
2022/01/16 03:49:28;;;;;;;1.95;1.85;;;-1.60;1.40;;;-1.09;100.00;95888.52;647970;216;31866;-77
2022/01/16 03:52:11;;;;;;;2.33;2.12;;;-1.70;1.40;;;-1.13;100.00;95889.02;648748;212;31824;-77
2022/01/16 03:54:54;;;;;;;3.25;1.65;;;-1.70;1.40;;;-1.18;100.00;95893.80;646668;216;31612;-76
2022/01/16 03:57:42;;;;;;;2.37;1.60;;;-1.70;1.40;;;-1.23;100.00;95890.47;647735;212;32022;-77
2022/01/16 04:00:24;;;;;;;2.70;2.37;;;-1.70;1.40;;;-1.26;100.00;95895.58;643351;217;31545;-76
2022/01/16 04:03:05;;;;;;;3.53;2.30;;;-1.80;1.40;;;-1.23;100.00;95905.78;646998;212;31546;-77
2022/01/16 04:05:48;;;;;;;4.55;2.22;;;-1.80;1.40;;;-1.35;100.00;95913.08;641656;212;32196;-77
2022/01/16 04:08:32;;;;;;;5.53;2.45;;;-1.80;1.40;;;-1.29;100.00;95920.16;620229;225;31875;-77
2022/01/16 04:11:20;;;;;;;3.70;1.40;;;-1.80;1.40;;;-1.26;100.00;95926.06;646461;216;31562;-77
2022/01/16 04:14:07;;;;;;;1.60;1.50;;;-1.80;1.40;;;-1.25;100.00;95928.59;618591;222;32313;-77
2022/01/16 04:16:48;;;;;;;2.30;2.20;;;-1.80;1.40;;;-1.19;100.00;95931.66;642731;218;32189;-78
2022/01/16 04:19:30;;;;;;;2.53;1.20;;;-1.70;1.40;;;-1.11;100.00;95937.19;619688;226;42643;-77
2022/01/16 04:22:17;;;;;;;5.60;1.50;;;-1.80;1.40;;;-1.16;100.00;95941.84;646570;212;31581;-75
2022/01/16 04:25:05;;;;;;;2.40;1.35;;;-1.80;1.40;;;-1.20;100.00;95936.36;646563;216;31569;-77
2022/01/16 04:27:47;;;;;;;2.60;2.10;;;-1.80;1.40;;;-1.16;100.00;95936.09;618795;226;31916;-78
2022/01/16 04:30:32;;;;;;;3.20;1.87;;;-1.80;1.40;;;-1.02;100.00;95934.15;646542;212;31845;-78
2022/01/16 04:35:57;;;;;;;1.30;0.98;;;-1.80;1.40;;;-0.99;100.00;95928.23;646838;212;31594;-78
2022/01/16 04:38:44;;;;;;;4.07;1.27;;;-1.70;1.40;;;-1.04;100.00;95925.27;646882;212;32160;-77
2022/01/16 04:44:08;;;;;;;1.80;0.80;;;-1.70;1.40;;;-0.96;100.00;95930.02;647439;212;31532;-77
2022/01/16 04:46:49;;;;;;;2.50;2.30;;;-1.70;1.40;;;-1.04;100.00;95926.92;646050;212;31610;-77
2022/01/16 04:49:32;;;;;;;2.90;1.80;;;-1.70;1.40;;;-1.05;100.00;95925.12;647365;216;31557;-77
2022/01/16 04:52:20;;;;;;;3.10;1.37;;;-1.70;1.40;;;-1.11;100.00;95931.88;647056;216;31566;-75
2022/01/16 04:55:04;;;;;;;2.60;2.40;;;-1.70;1.40;;;-1.09;100.00;95933.14;647885;216;31602;-78
2022/01/16 04:57:47;;;;;;;2.00;1.80;;;-1.80;1.40;;;-1.20;100.00;95926.47;645996;216;31815;-78
2022/01/16 05:00:29;;;;;;;1.85;1.75;;;-1.80;1.40;;;-1.23;100.00;95924.77;646923;212;31513;-78
2022/01/16 05:03:10;;;;;;;1.20;1.00;;;-1.90;1.40;;;-1.29;100.00;95924.81;647424;216;31577;-77
2022/01/16 05:05:53;;;;;;;3.20;1.83;;;-1.90;1.40;;;-1.35;100.00;95929.79;642589;216;31860;-77
2022/01/16 05:08:35;;;;;;;4.20;1.90;;;-1.90;1.40;;;-1.25;100.00;95935.55;619835;226;32082;-78
2022/01/16 05:11:24;;;;;;;2.30;1.55;;;-1.90;1.40;;;-1.36;100.00;95941.09;647526;216;31528;-77
2022/01/16 05:16:55;;;;;;;3.50;2.80;;;-2.00;1.40;;;-1.44;100.00;95945.45;646662;212;31565;-78
2022/01/16 05:19:37;;;;;;;2.70;1.35;;;-2.00;1.40;;;-1.43;100.00;95950.48;646366;212;31515;-78
2022/01/16 05:22:18;;;;;;;3.08;1.50;;;-2.00;1.40;;;-1.44;100.00;95944.78;648825;216;31607;-77
2022/01/16 05:25:02;;;;;;;1.15;1.12;;;-2.10;1.40;;;-1.53;100.00;95944.20;646364;216;31951;-77
2022/01/16 05:27:43;;;;;;;2.30;1.35;;;-2.10;1.40;;;-1.52;100.00;95945.50;647440;212;31588;-77
2022/01/16 05:30:27;;;;;;;2.87;1.98;;;-2.00;1.40;;;-1.47;100.00;95944.88;646883;216;32077;-77
2022/01/16 05:35:51;;;;;;;4.00;1.90;;;-2.10;1.40;;;-1.47;100.00;95946.44;646398;216;31576;-78
2022/01/16 05:38:39;;;;;;;3.72;1.83;;;-2.00;1.40;;;-1.47;100.00;95943.34;646344;212;32133;-74
2022/01/16 05:41:27;;;;;;;1.90;1.40;;;-2.00;1.40;;;-1.43;100.00;95948.05;646698;216;31982;-77
2022/01/16 05:44:14;;;;;;;4.20;2.30;;;-2.00;1.40;;;-1.39;100.00;95945.47;646047;216;31666;-76
2022/01/16 05:47:04;;;;;;;2.15;1.95;;;-2.00;1.40;;;-1.43;100.00;95948.09;646196;212;31549;-77
2022/01/16 05:49:44;;;;;;;3.80;2.05;;;-2.00;1.40;;;-1.38;100.00;95963.67;647760;212;33175;-77
2022/01/16 05:52:26;;;;;;;2.60;1.62;;;-1.90;1.40;;;-1.27;100.00;95963.43;647646;212;43158;-77
2022/01/16 05:55:10;;;;;;;5.28;2.28;;;-1.90;1.40;;;-1.33;100.00;95968.03;646086;216;31620;-77
2022/01/16 05:57:51;;;;;;;2.10;1.10;;;-1.90;1.40;;;-1.17;100.00;95968.79;647690;212;31774;-78
2022/01/16 06:00:33;;;;;;;6.07;2.60;;;-1.90;1.40;;;-1.30;100.00;95977.22;646500;216;31603;-77
2022/01/16 06:03:21;;;;;;;4.03;2.92;;;-1.90;1.40;;;-1.27;100.00;95973.00;646370;216;31577;-78
2022/01/16 06:06:07;;;;;;;3.75;2.00;;;-1.90;1.40;;;-1.29;100.00;95982.28;616497;222;32287;-75
2022/01/16 06:08:54;;;;;;;5.70;2.03;;;-1.90;1.40;;;-1.42;100.00;95987.70;646928;216;31587;-77
2022/01/16 06:11:36;;;;;;;2.10;1.40;;;-2.00;1.40;;;-1.41;100.00;95988.14;647238;216;31590;-77
2022/01/16 06:14:18;;;;;;;3.08;1.83;;;-2.00;1.40;;;-1.42;100.00;95987.52;646860;216;31577;-77
2022/01/16 06:17:00;;;;;;;3.78;2.33;;;-2.00;1.40;;;-1.43;100.00;95993.49;646961;216;31923;-77
2022/01/16 06:19:42;;;;;;;6.22;3.67;;;-2.00;1.40;;;-1.32;100.00;95982.76;647329;216;31624;-77
2022/01/16 06:22:24;;;;;;;2.40;2.00;;;-2.00;1.40;;;-1.30;100.00;95985.77;646743;216;31926;-77
2022/01/16 06:25:06;;;;;;;3.00;2.20;;;-2.00;1.40;;;-1.28;100.00;95986.80;647009;212;31765;-77
2022/01/16 06:27:48;;;;;;;1.33;1.23;;;-2.00;1.40;;;-1.37;100.00;95994.83;646310;216;32165;-78
2022/01/16 06:30:29;;;;;;;2.85;1.50;;;-2.00;1.40;;;-1.46;100.00;96000.85;647524;212;31937;-77
2022/01/16 06:35:57;;;;;;;5.07;2.90;;;-2.00;1.40;;;-1.40;100.00;96002.36;646363;216;42220;-77
2022/01/16 06:38:38;;;;;;;2.90;2.60;;;-2.10;1.40;;;-1.47;100.00;96001.09;646032;216;31845;-77
2022/01/16 06:41:20;;;;;;;2.70;2.50;;;-2.10;1.40;;;-1.46;100.00;95999.42;647710;212;42177;-77
2022/01/16 06:44:05;;;;;;;5.60;3.00;;;-2.20;1.40;;;-1.52;100.00;96001.36;646036;212;31582;-78
2022/01/16 06:46:47;;;;;;;3.05;1.52;;;-2.30;1.40;;;-1.55;100.00;96003.17;646260;216;31599;-78
2022/01/16 06:49:31;;;;;;;4.32;2.33;;;-2.30;1.40;;;-1.72;100.00;96003.47;646321;212;31590;-74
2022/01/16 06:52:12;;;;;;;2.10;1.90;;;-2.50;1.40;;;-1.88;100.00;96006.56;618802;226;31965;-74
2022/01/16 06:55:00;;;;;;;1.60;1.30;;;-2.50;1.40;;;-1.89;100.00;96006.18;646572;212;32966;-78
2022/01/16 06:57:42;;;;;;;3.10;2.80;;;-2.70;1.40;;;-1.93;100.00;96011.53;647036;216;42147;-78
2022/01/16 07:00:30;;;;;;;7.25;2.42;;;-2.70;1.40;;;-1.93;100.00;96013.25;647381;216;31553;-74
2022/01/16 07:03:15;;;;;;;1.58;1.42;;;-2.50;1.40;;;-1.93;100.00;96015.84;647466;212;31629;-77
2022/01/16 07:06:03;;;;;;;3.10;1.58;;;-2.50;1.40;;;-2.09;100.00;96018.46;639555;212;31981;-79
2022/01/16 07:08:51;;;;;;;2.55;1.75;;;-2.60;1.40;;;-2.06;100.00;96021.63;646038;216;32454;-76
2022/01/16 07:11:32;;;;;;;3.10;1.90;;;-2.60;1.40;;;-2.14;100.00;96021.10;647635;216;31666;-76
2022/01/16 07:14:20;;;;;;;2.37;1.10;;;-2.70;1.40;;;-2.21;100.00;96014.27;646975;216;31550;-78
2022/01/16 07:19:36;;;;;;;1.50;1.30;;;-2.70;1.40;;;-2.28;100.00;96018.09;646964;212;31561;-77
2022/01/16 07:22:24;;;;;;;1.52;1.00;;;-2.80;1.40;;;-2.30;100.00;96019.06;646119;216;31575;-76
2022/01/16 07:25:09;;;;;;;4.00;2.20;;;-2.90;1.40;;;-2.27;100.00;96017.02;617913;225;31834;-77
2022/01/16 07:30:31;;;;;;;2.20;2.05;;;-2.90;1.40;;;-2.29;100.00;96023.13;646504;212;31515;-76
2022/01/16 07:35:57;;;;;;;2.78;1.95;;;-2.80;1.40;;;-2.28;100.00;96024.21;642516;215;31583;-77
2022/01/16 07:38:38;;;;;;;1.80;1.30;;;-2.80;1.40;;;-2.31;100.00;96029.52;620164;225;32013;-78
2022/01/16 07:41:26;;;;;;;1.80;1.70;;;-2.80;1.40;;;-2.26;100.00;96028.57;646101;212;31664;-74
2022/01/16 07:44:15;;;;;;;2.25;1.42;;;-2.80;1.40;;;-2.22;100.00;96028.92;619037;222;32005;-78
2022/01/16 07:47:02;;;;;;;6.00;2.87;;;-2.80;1.40;;;-2.13;100.00;96034.93;642082;216;31683;-77
2022/01/16 07:49:51;;;;;;;2.67;2.53;;;-2.70;1.40;;;-2.08;100.00;96040.73;647107;216;31610;-77
2022/01/16 07:52:42;;;;;;;1.85;1.10;;;-2.70;1.40;;;-2.07;100.00;96044.55;618073;225;31903;-76
2022/01/16 07:55:27;;;;;;;3.60;1.67;;;-2.70;1.40;;;-1.92;100.00;96048.66;647383;216;31650;-77
2022/01/16 07:58:08;;;;;;;1.60;1.50;;;-2.60;1.40;;;-1.86;100.00;96059.81;619941;222;32120;-77
2022/01/16 08:00:50;;;;;;;2.50;2.00;;;-2.60;1.40;;;-1.86;100.00;96049.45;647714;216;31857;-76
2022/01/16 08:03:37;;;;;;;2.53;2.03;;;-2.50;1.40;;;-1.81;100.00;96054.81;647318;212;31737;-76
2022/01/16 08:06:27;;;;;;;2.23;1.70;;;-2.50;1.40;;;-1.70;100.00;96055.27;639330;212;31721;-77
2022/01/16 08:09:11;;;;;;;2.62;2.25;;;-2.50;1.40;;;-1.71;100.00;96054.29;645988;216;42251;-76
2022/01/16 08:11:55;;;;;;;3.00;1.60;;;-2.40;1.40;;;-1.73;100.00;96066.52;619080;225;31936;-77
2022/01/16 08:14:37;;;;;;;2.97;2.67;;;-2.40;1.40;;;-1.60;100.00;96060.43;648327;212;31482;-77
2022/01/16 08:17:24;;;;;;;3.03;2.72;;;-2.40;1.40;;;-1.51;100.00;96057.08;618295;226;32000;-77
2022/01/16 08:20:12;;;;;;;3.67;1.92;;;-2.30;1.40;;;-1.48;100.00;96058.58;647203;212;31560;-77
2022/01/16 08:22:56;;;;;;;1.95;1.73;;;-2.20;1.40;;;-1.37;100.00;96048.28;647718;212;31527;-77
2022/01/16 08:25:41;;;;;;;3.37;2.67;;;-2.10;1.40;;;-1.16;100.00;96058.28;643049;216;42045;-78
2022/01/16 08:28:21;;;;;;;4.10;2.10;;;-2.00;1.40;;;-1.01;100.00;96051.52;647917;216;31551;-78
2022/01/16 08:31:09;;;;;;;2.30;1.77;;;-1.90;1.40;;;-0.92;100.00;96063.40;646170;216;31591;-75
2022/01/16 08:35:51;;;;;;;7.50;2.47;;;-1.70;1.40;;;-0.90;100.00;96058.41;646792;216;31573;-78
2022/01/16 08:38:38;;;;;;;5.75;2.62;;;-1.60;1.40;;;-0.68;100.00;96042.39;618150;226;31985;-74
2022/01/16 08:41:26;;;;;;;4.95;3.20;;;-1.40;1.40;;;-0.42;100.00;96049.86;646472;216;31600;-77
2022/01/16 08:44:08;;;;;;;3.53;1.75;;;-1.20;1.40;;;-0.20;100.00;96039.89;620475;225;31929;-78
2022/01/16 08:46:51;;;;;;;2.00;1.30;;;-0.90;1.40;;;0.10;100.00;96037.87;647726;216;31544;-77
2022/01/16 08:49:35;;;;;;;3.20;2.70;;;-0.70;1.40;;;0.34;100.00;96035.67;619368;222;32020;-77
2022/01/16 08:52:18;;;;;;;3.60;2.40;;;-0.40;1.40;;;0.54;100.00;96039.38;619816;226;32184;-77
2022/01/16 08:54:58;;;;;;;2.40;1.93;;;0.00;1.40;;;0.74;100.00;96028.86;646691;216;31703;-77
2022/01/16 08:57:39;;;;;;;4.50;2.78;;;0.20;1.40;;;1.02;100.00;96032.13;646905;212;33210;-77
2022/01/16 09:00:23;;;;;;;1.67;1.50;;;0.50;1.40;;;1.23;100.00;96041.69;646593;216;31603;-76
2022/01/16 09:03:11;;;;;;;2.87;1.45;;;0.80;1.40;;;1.92;100.00;96050.34;648500;212;31688;-77
2022/01/16 09:05:54;;;;;;;2.92;2.72;;;2.80;1.40;;;3.52;100.00;96052.87;614695;222;32655;-77
2022/01/16 09:11:09;;;;;;;3.33;2.78;;;5.20;1.40;;;4.55;100.00;96048.01;647103;216;31616;-76
2022/01/16 09:13:51;;;;;;;4.32;2.78;;;4.90;1.40;;;4.61;100.00;96059.94;643280;216;31867;-77
2022/01/16 09:16:33;;;;;;;4.93;3.42;;;5.10;1.40;;;5.06;100.00;96057.27;646754;216;31658;-77
2022/01/16 09:19:14;;;;;;;5.07;4.67;;;5.20;1.40;;;5.26;100.00;96067.20;653607;216;26020;-77
2022/01/16 09:21:56;;;;;;;5.30;3.30;;;5.40;1.40;;;5.77;100.00;96064.02;647329;216;31685;-78
2022/01/16 09:24:37;;;;;;;5.10;3.80;;;5.60;1.40;;;6.37;100.00;96061.50;646457;212;31664;-78
2022/01/16 09:27:19;;;;;;;4.57;3.33;;;6.30;1.40;;;6.96;96.93;96068.30;645758;216;31731;-78
2022/01/16 09:30:06;;;;;;;7.50;4.70;;;5.80;1.40;;;7.29;96.76;96071.53;648815;213;42201;-78
2022/01/16 09:32:53;;;;;;;5.67;3.90;;;6.70;1.40;;;6.78;96.04;96070.33;646188;216;31615;-76
2022/01/16 09:35:57;;;;;;;5.50;3.83;;;6.70;1.40;;;7.89;90.76;96065.62;647010;212;42205;-78
2022/01/16 09:38:38;;;;;;;5.67;3.60;;;5.90;1.40;;;8.22;89.13;96065.98;619644;222;42735;-78
2022/01/16 09:41:23;;;;;;;5.53;4.20;;;7.30;1.40;;;8.77;87.49;96061.95;619601;226;42562;-79
2022/01/16 09:44:07;;;;;;;5.73;3.83;;;8.10;1.40;;;8.10;84.33;96064.58;618413;222;31897;-75
2022/01/16 09:46:48;;;;;;;5.27;3.87;;;6.60;1.40;;;8.09;87.12;96073.71;645825;216;42591;-75
2022/01/16 09:49:30;;;;;;;5.80;3.63;;;6.30;1.40;;;8.19;83.82;96072.91;619015;222;32120;-75
2022/01/16 09:52:18;;;;;;;4.83;3.77;;;7.60;1.40;;;8.96;83.63;96072.36;645907;216;31534;-79
2022/01/16 09:55:02;;;;;;;5.93;4.07;;;8.10;1.40;;;9.39;85.92;96070.96;619792;222;33053;-75
2022/01/16 09:57:50;;;;;;;5.53;3.90;;;8.30;1.40;;;10.21;81.76;96061.58;619751;226;34776;-78
2022/01/16 10:00:34;;;;;;;7.87;4.05;;;8.20;1.40;;;10.18;72.31;96065.73;647120;216;31676;-75
2022/01/16 10:03:34;;;;;;;6.40;4.28;;;7.80;1.40;;;10.57;75.46;96067.33;645771;212;31571;-78
2022/01/16 10:06:17;;;;;;;5.00;3.83;;;8.40;1.40;;;9.93;73.50;96071.96;639985;212;31744;-78
2022/01/16 10:09:04;;;;;;;5.62;3.80;;;8.10;1.40;;;9.45;76.58;96073.41;618472;226;31928;-75
2022/01/16 10:11:49;;;;;;;4.80;3.80;;;8.40;1.40;;;9.61;78.06;96067.03;647246;212;31557;-75
2022/01/16 10:14:36;;;;;;;4.60;3.10;;;9.00;1.40;;;9.80;78.33;96069.44;646767;216;31604;-77
2022/01/16 10:17:21;;;;;;;4.28;3.17;;;8.70;1.40;;;9.57;77.77;96069.13;646637;216;31587;-75
2022/01/16 10:20:10;;;;;;;6.65;4.30;;;8.60;1.40;;;9.81;75.16;96069.33;618550;226;32267;-78
2022/01/16 10:22:58;;;;;;;3.62;3.17;;;8.60;1.40;;;9.30;75.92;96079.22;647925;216;31552;-75
2022/01/16 10:25:44;;;;;;;5.05;4.22;;;8.90;1.40;;;9.70;77.01;96068.56;645694;216;31606;-75
2022/01/16 10:28:28;;;;;;;4.87;3.47;;;9.00;1.40;;;10.88;72.17;96063.38;646413;212;31579;-75
2022/01/16 10:31:10;;;;;;;6.47;3.47;;;9.80;1.40;;;10.51;73.27;96063.66;619030;226;32016;-75
2022/01/16 10:35:57;;;;;;;4.55;3.97;;;7.90;1.40;;;9.60;74.38;96066.77;642325;217;31615;-79
2022/01/16 10:38:45;;;;;;;5.25;4.03;;;8.00;1.40;;;9.52;74.97;96065.96;617985;226;32344;-75
2022/01/16 10:41:26;;;;;;;5.82;4.00;;;8.00;1.40;;;9.44;75.91;96064.59;647489;216;31864;-74
2022/01/16 10:44:25;;;;;;;4.37;3.55;;;8.10;1.40;;;9.79;74.93;96063.00;647741;216;31589;-77
2022/01/16 10:47:24;;;;;;;4.60;3.53;;;8.50;1.40;;;10.83;73.74;96059.91;646287;216;42412;-75
2022/01/16 10:50:17;;;;;;;4.25;2.90;;;9.90;1.40;;;11.02;72.09;96063.05;646757;216;31578;-75
2022/01/16 10:53:06;;;;;;;5.62;4.10;;;8.80;1.40;;;10.11;72.07;96077.55;648972;216;31562;-79
2022/01/16 10:55:51;;;;;;;5.30;4.20;;;8.10;1.40;;;11.16;70.46;96069.13;646763;212;31594;-75
2022/01/16 10:58:39;;;;;;;4.60;3.50;;;9.90;1.40;;;11.02;67.37;96059.84;647073;212;32208;-76
2022/01/16 11:01:20;;;;;;;6.43;3.90;;;9.80;1.40;;;11.04;69.49;96061.33;645904;216;31748;-75
2022/01/16 11:04:04;;;;;;;4.70;4.00;;;9.90;1.40;;;10.54;68.90;96064.27;647792;216;31572;-79
2022/01/16 11:06:47;;;;;;;4.60;3.22;;;9.00;1.40;;;10.10;75.87;96064.99;639046;216;31721;-80
2022/01/16 11:09:30;;;;;;;4.75;3.55;;;10.00;1.40;;;10.95;69.53;96068.27;646257;212;31595;-75
2022/01/16 11:12:11;;;;;;;4.40;3.40;;;10.20;1.40;;;11.12;68.03;96073.05;646725;216;31568;-76
2022/01/16 11:14:56;;;;;;;4.07;3.05;;;9.70;1.40;;;10.55;71.42;96073.42;646318;212;31595;-75
2022/01/16 11:17:38;;;;;;;4.20;3.40;;;10.00;1.40;;;10.84;68.94;96079.00;646820;216;31581;-75
2022/01/16 11:23:15;;;;;;;3.90;2.92;;;8.20;1.40;;;9.76;76.70;96079.50;620417;222;31886;-74
2022/01/16 11:26:01;;;;;;;5.80;3.37;;;9.40;1.40;;;9.93;73.57;96078.29;619664;226;32060;-78
2022/01/16 11:28:49;;;;;;;6.25;3.10;;;9.50;1.40;;;9.68;75.46;96083.14;647277;216;31576;-75
2022/01/16 11:31:36;;;;;;;5.57;3.67;;;9.30;1.40;;;10.33;74.27;96083.25;647141;216;31578;-77
2022/01/16 11:35:54;;;;;;;5.47;3.10;;;9.20;1.40;;;10.68;72.18;96086.05;619681;223;32063;-75
2022/01/16 11:38:41;;;;;;;6.50;3.58;;;9.10;1.40;;;9.93;72.66;96096.92;649112;216;42195;-78
2022/01/16 11:41:32;;;;;;;3.80;3.37;;;8.90;1.40;;;9.48;75.03;96089.63;646830;216;36038;-74
2022/01/16 11:44:28;;;;;;;6.63;3.87;;;8.50;1.40;;;8.85;78.61;96103.27;647307;216;31784;-75
2022/01/16 11:47:09;;;;;;;4.80;3.30;;;8.00;1.40;;;9.41;76.54;96095.62;645515;212;31699;-74
2022/01/16 11:49:51;;;;;;;4.60;3.30;;;8.10;1.40;;;9.48;75.78;96105.54;619444;222;32470;-78
2022/01/16 11:52:41;;;;;;;4.47;3.20;;;8.50;1.40;;;8.93;77.66;96108.23;619415;222;32490;-80
2022/01/16 11:55:34;;;;;;;4.77;3.40;;;8.20;1.40;;;9.67;73.96;96116.06;646854;212;34561;-74
2022/01/16 11:58:18;;;;;;;5.70;3.33;;;7.90;1.40;;;9.35;77.80;96112.82;619977;222;32848;-79
2022/01/16 12:01:05;;;;;;;3.80;3.27;;;8.10;1.40;;;9.02;77.50;96116.36;646672;212;32011;-75
2022/01/16 12:03:53;;;;;;;5.75;3.80;;;8.30;1.40;;;8.96;77.83;96106.49;647496;216;31593;-80
2022/01/16 12:06:41;;;;;;;4.33;3.43;;;8.40;1.40;;;8.68;76.95;96118.67;639790;216;31759;-74
2022/01/16 12:09:51;;;;;;;4.20;3.70;;;7.30;1.40;;;8.16;80.94;96116.47;646656;212;31589;-75
2022/01/16 12:15:08;;;;;;;6.82;3.97;;;6.80;1.40;;;7.01;92.46;96117.53;621276;226;42587;-74
2022/01/16 12:17:51;;;;;;;5.20;3.10;;;6.70;1.40;;;7.35;89.63;96113.41;646416;216;31583;-74
2022/01/16 12:20:32;;;;;;;7.50;4.03;;;6.20;1.40;;;7.17;92.51;96119.16;647494;216;31562;-77
2022/01/16 12:23:13;;;;;;;4.50;3.20;;;6.60;1.40;;;7.19;92.20;96122.41;646548;216;31797;-75
2022/01/16 12:25:55;;;;;;;6.10;3.50;;;6.50;1.40;;;6.99;93.50;96114.19;646188;216;31903;-75
2022/01/16 12:28:37;;;;;;;4.43;3.33;;;6.80;1.40;;;6.97;91.03;96120.22;646864;212;31717;-74
2022/01/16 12:31:18;;;;;;;4.50;3.10;;;6.90;1.40;;;7.48;88.45;96125.91;646371;212;31693;-75
2022/01/16 12:36:00;;;;;;;4.80;3.70;;;7.00;1.40;;;7.03;89.72;96126.55;618212;222;32322;-74
2022/01/16 12:38:45;;;;;;;5.50;2.90;;;6.40;1.40;;;6.86;91.92;96120.42;645283;216;31859;-76
2022/01/16 12:41:34;;;;;;;4.60;3.67;;;6.70;1.40;;;7.12;89.44;96119.80;647246;212;31564;-76
2022/01/16 12:44:15;;;;;;;4.60;3.30;;;6.40;1.40;;;6.92;92.09;96124.62;619725;225;31956;-76
2022/01/16 12:46:58;;;;;;;4.15;3.30;;;6.50;1.40;;;7.70;89.74;96115.21;646620;216;31577;-74
2022/01/16 12:49:38;;;;;;;4.50;3.47;;;7.00;1.40;;;7.31;87.91;96117.88;646437;216;31569;-74
2022/01/16 12:52:20;;;;;;;3.90;3.33;;;6.90;1.40;;;7.53;89.25;96119.01;648048;216;31554;-76
2022/01/16 12:55:07;;;;;;;4.20;2.80;;;7.40;1.40;;;8.26;81.96;96119.34;647549;216;31724;-75